Time;durP1;ratioP1;P1;durP2;ratioP2;P2;SDS_P1;SDS_P2;PMS_P1;PMS_P2;Temp;Humidity;BMP_temperature;BMP_pressure;BME280_temperature;BME280_humidity;BME280_pressure;Samples;Min_cycle;Max_cycle;Signal;HPM_P1;HPM_P2
2023/01/21 00:01:47;;;;;;;51.33;17.02;;;2.40;90.20;;;;;;5103719;28;20024;-56
2023/01/21 00:04:13;;;;;;;60.55;17.83;;;2.40;90.20;;;;;;5120610;28;20111;-57
2023/01/21 00:06:38;;;;;;;42.25;16.85;;;2.30;90.30;;;;;;5086810;28;20402;-56
2023/01/21 00:09:04;;;;;;;37.25;14.85;;;2.30;90.30;;;;;;5105052;28;20119;-57
2023/01/21 00:11:29;;;;;;;54.95;18.05;;;2.30;90.30;;;;;;5103405;28;20028;-57
2023/01/21 00:13:55;;;;;;;45.90;17.38;;;2.30;90.20;;;;;;5103664;28;20456;-57
2023/01/21 00:16:20;;;;;;;44.13;16.30;;;2.30;90.30;;;;;;5087044;28;20432;-55
2023/01/21 00:18:46;;;;;;;41.85;16.42;;;2.30;90.30;;;;;;5105041;28;20036;-56
2023/01/21 00:21:12;;;;;;;36.47;17.02;;;2.30;90.30;;;;;;5103509;28;20084;-57
2023/01/21 00:23:38;;;;;;;45.53;16.85;;;2.30;90.30;;;;;;5103715;28;20032;-57
2023/01/21 00:26:05;;;;;;;48.95;17.27;;;2.20;90.30;;;;;;5105033;28;20157;-57
2023/01/21 00:28:32;;;;;;;49.38;17.45;;;2.20;90.30;;;;;;5103593;28;20039;-56
2023/01/21 00:31:03;;;;;;;48.38;18.88;;;2.20;90.30;;;;;;5106194;28;20032;-56
2023/01/21 00:33:30;;;;;;;36.80;17.25;;;2.20;90.40;;;;;;5109064;28;20032;-56
2023/01/21 00:36:00;;;;;;;38.67;17.73;;;2.20;90.40;;;;;;5074057;28;20028;-56
2023/01/21 00:38:25;;;;;;;47.08;17.60;;;2.20;90.40;;;;;;5107640;28;20061;-57
2023/01/21 00:40:51;;;;;;;35.70;16.92;;;2.20;90.40;;;;;;5107448;28;20079;-56
2023/01/21 00:43:16;;;;;;;40.25;17.05;;;2.20;90.40;;;;;;5108841;28;20054;-57
2023/01/21 00:45:42;;;;;;;42.97;18.00;;;2.20;90.40;;;;;;5108678;28;20021;-57
2023/01/21 00:48:07;;;;;;;41.58;16.38;;;2.10;90.40;;;;;;5108617;28;20062;-57
2023/01/21 00:50:33;;;;;;;38.10;18.17;;;2.20;90.40;;;;;;5107262;28;20066;-56
2023/01/21 00:52:58;;;;;;;35.75;17.95;;;2.10;90.30;;;;;;5107097;28;20028;-57
2023/01/21 00:55:24;;;;;;;37.83;18.02;;;2.10;90.40;;;;;;5107178;28;20020;-56
2023/01/21 00:57:51;;;;;;;34.35;17.73;;;2.10;90.40;;;;;;5124085;28;20032;-56
2023/01/21 01:00:18;;;;;;;38.50;17.40;;;2.10;90.40;;;;;;5108513;28;20122;-57
2023/01/21 01:02:43;;;;;;;34.28;16.75;;;2.10;90.40;;;;;;5106985;28;20052;-56
2023/01/21 01:05:09;;;;;;;43.35;17.80;;;2.10;90.40;;;;;;5090417;28;20027;-57
2023/01/21 01:07:35;;;;;;;45.25;17.45;;;2.10;90.40;;;;;;5107360;28;20032;-57
2023/01/21 01:10:00;;;;;;;35.90;17.30;;;2.10;90.40;;;;;;5106916;28;20031;-56
2023/01/21 01:12:27;;;;;;;34.38;16.58;;;2.10;90.40;;;;;;5073199;28;20113;-57
2023/01/21 01:14:53;;;;;;;34.38;18.15;;;2.10;90.50;;;;;;5106903;28;20051;-56
2023/01/21 01:17:18;;;;;;;35.75;18.52;;;2.10;90.40;;;;;;5107878;28;20032;-57
2023/01/21 01:19:44;;;;;;;42.15;18.17;;;2.00;90.50;;;;;;5106922;28;20027;-56
2023/01/21 01:22:09;;;;;;;31.23;17.08;;;2.00;90.40;;;;;;5108096;28;20446;-57
2023/01/21 01:24:35;;;;;;;35.95;18.23;;;2.00;90.40;;;;;;5108029;28;20028;-57
2023/01/21 01:27:00;;;;;;;45.25;18.08;;;2.00;90.50;;;;;;5107934;28;20067;-56
2023/01/21 01:29:27;;;;;;;33.95;17.02;;;2.00;90.50;;;;;;5089588;28;20036;-56
2023/01/21 01:31:52;;;;;;;36.33;18.20;;;2.00;90.50;;;;;;5123433;28;20052;-56
2023/01/21 01:34:18;;;;;;;29.58;18.55;;;2.00;90.50;;;;;;5089652;28;20028;-57
2023/01/21 01:36:43;;;;;;;31.55;17.77;;;2.00;90.80;;;;;;5107599;28;20031;-56
2023/01/21 01:39:09;;;;;;;40.00;18.42;;;2.00;90.50;;;;;;5107871;28;20130;-57
2023/01/21 01:41:35;;;;;;;39.33;17.85;;;1.90;90.40;;;;;;5107523;28;20051;-56
2023/01/21 01:44:04;;;;;;;35.15;17.00;;;2.00;90.40;;;;;;5089396;28;20051;-56
2023/01/21 01:46:34;;;;;;;30.23;16.77;;;1.90;90.40;;;;;;5106110;28;20033;-57
2023/01/21 01:49:01;;;;;;;28.55;17.90;;;1.90;90.40;;;;;;5106262;28;20032;-57
2023/01/21 01:51:45;;;;;;;29.15;16.27;;;1.90;90.40;;;;;;5106216;28;20039;-56
2023/01/21 01:54:12;;;;;;;30.33;17.30;;;1.90;90.40;;;;;;5073392;28;20051;-57
2023/01/21 01:56:37;;;;;;;35.25;18.02;;;1.90;90.50;;;;;;5089468;28;20012;-56
2023/01/21 01:59:03;;;;;;;32.25;16.92;;;1.90;90.60;;;;;;5089357;28;20031;-57
2023/01/21 02:01:28;;;;;;;32.40;18.63;;;1.90;91.00;;;;;;5107632;28;20024;-56
2023/01/21 02:03:58;;;;;;;32.85;18.40;;;1.90;90.70;;;;;;5089454;28;20042;-57
2023/01/21 02:06:24;;;;;;;37.15;19.23;;;1.90;90.80;;;;;;5089423;28;20042;-56
2023/01/21 02:08:49;;;;;;;35.03;19.17;;;1.90;90.90;;;;;;5105723;28;20035;-57
2023/01/21 02:11:17;;;;;;;29.27;17.83;;;1.90;91.00;;;;;;5088911;28;20028;-56
2023/01/21 02:13:48;;;;;;;33.47;19.08;;;1.90;91.00;;;;;;5088987;28;20115;-56
2023/01/21 02:16:39;;;;;;;34.85;18.58;;;1.90;91.10;;;;;;5089014;28;20031;-57
2023/01/21 02:19:49;;;;;;;30.95;17.70;;;1.90;91.20;;;;;;5105845;28;20024;-57
2023/01/21 02:22:44;;;;;;;33.90;18.08;;;1.90;91.30;;;;;;5106920;28;20028;-56
2023/01/21 02:25:12;;;;;;;28.67;18.23;;;1.90;91.30;;;;;;5061035;28;20043;-57
2023/01/21 02:27:56;;;;;;;36.78;19.35;;;1.90;91.40;;;;;;5105169;28;20024;-57
2023/01/21 02:30:43;;;;;;;28.38;17.48;;;1.90;91.40;;;;;;5105375;28;20372;-56
2023/01/21 02:33:26;;;;;;;29.35;18.10;;;1.90;91.40;;;;;;5088338;28;20025;-57
2023/01/21 02:36:23;;;;;;;29.65;17.75;;;1.90;91.50;;;;;;5106491;28;20470;-57
2023/01/21 02:39:02;;;;;;;28.85;17.00;;;1.90;91.50;;;;;;5104983;28;20100;-57
2023/01/21 02:41:43;;;;;;;27.17;17.80;;;1.90;91.50;;;;;;5089629;28;20028;-56
2023/01/21 02:44:21;;;;;;;27.55;17.20;;;1.90;91.50;;;;;;5106422;28;20071;-57
2023/01/21 02:46:52;;;;;;;31.25;17.63;;;1.90;91.50;;;;;;5071863;28;20020;-57
2023/01/21 02:49:35;;;;;;;32.30;17.90;;;1.90;91.50;;;;;;5071710;28;20024;-57
2023/01/21 02:52:01;;;;;;;35.28;17.38;;;1.90;91.60;;;;;;5090184;28;20040;-57
2023/01/21 02:54:38;;;;;;;26.27;17.27;;;1.90;91.60;;;;;;5104477;28;20027;-57
2023/01/21 02:57:15;;;;;;;24.90;16.50;;;1.90;91.50;;;;;;5105969;28;20041;-57
2023/01/21 02:59:43;;;;;;;25.02;16.17;;;1.90;91.50;;;;;;5088252;28;20055;-56
2023/01/21 03:02:36;;;;;;;30.20;17.30;;;1.90;91.50;;;;;;5088028;28;20028;-57
2023/01/21 03:05:14;;;;;;;26.83;16.80;;;1.80;91.40;;;;;;5089139;28;20020;-57
2023/01/21 03:07:43;;;;;;;32.17;18.10;;;1.90;91.40;;;;;;5104824;28;20067;-57
2023/01/21 03:10:21;;;;;;;24.08;15.75;;;1.90;91.30;;;;;;5071348;28;20028;-57
2023/01/21 03:18:54;;;;;;;26.77;15.15;;;1.80;91.20;;;;;;5090587;28;20134;-57
2023/01/21 03:21:22;;;;;;;23.90;15.82;;;1.80;91.20;;;;;;5104666;28;20032;-57
2023/01/21 03:23:50;;;;;;;28.42;15.77;;;1.80;91.20;;;;;;5071115;28;20123;-57
2023/01/21 03:26:17;;;;;;;26.23;16.65;;;1.80;91.20;;;;;;5087903;28;20040;-56
2023/01/21 03:28:47;;;;;;;30.02;15.68;;;1.80;91.20;;;;;;5087661;28;20058;-57
2023/01/21 03:31:22;;;;;;;21.42;15.15;;;1.80;91.20;;;;;;5087668;28;20032;-57
2023/01/21 03:33:49;;;;;;;24.50;15.27;;;1.80;91.10;;;;;;5104448;28;20059;-57
2023/01/21 03:36:36;;;;;;;20.33;14.00;;;1.70;91.10;;;;;;5087605;28;20032;-57
2023/01/21 03:39:06;;;;;;;22.95;15.80;;;1.70;91.10;;;;;;5104704;28;20032;-57
2023/01/21 03:41:33;;;;;;;25.52;14.85;;;1.70;91.10;;;;;;5071001;28;20364;-57
2023/01/21 03:43:59;;;;;;;22.73;15.05;;;1.70;91.10;;;;;;5104204;28;20031;-57
2023/01/21 03:47:06;;;;;;;25.83;15.68;;;1.70;91.00;;;;;;5104319;28;20040;-57
2023/01/21 03:49:37;;;;;;;22.02;13.18;;;1.70;91.00;;;;;;5076459;28;20056;-57
2023/01/21 03:52:03;;;;;;;21.33;13.35;;;1.60;91.00;;;;;;5070972;28;20100;-57
2023/01/21 03:54:28;;;;;;;19.20;13.25;;;1.60;91.00;;;;;;5104009;28;20020;-57
2023/01/21 03:56:54;;;;;;;26.33;13.63;;;1.60;91.00;;;;;;5086944;28;20093;-57
2023/01/21 03:59:19;;;;;;;22.83;13.82;;;1.60;91.00;;;;;;5105354;28;20020;-56
2023/01/21 04:01:45;;;;;;;21.35;13.63;;;1.60;91.00;;;;;;5105131;28;20028;-56
2023/01/21 04:04:10;;;;;;;21.73;13.15;;;1.60;91.00;;;;;;5120311;28;20051;-56
2023/01/21 04:06:36;;;;;;;19.45;13.10;;;1.60;91.00;;;;;;5103536;28;20032;-57
2023/01/21 04:09:03;;;;;;;21.15;13.82;;;1.60;91.00;;;;;;5086934;28;20024;-57
2023/01/21 04:11:28;;;;;;;20.77;14.50;;;1.60;91.00;;;;;;5103568;28;20173;-57
2023/01/21 04:13:54;;;;;;;26.05;14.18;;;1.50;91.00;;;;;;5105105;28;20220;-57
2023/01/21 04:16:20;;;;;;;21.88;12.73;;;1.50;91.00;;;;;;5104917;28;20074;-57
2023/01/21 04:18:46;;;;;;;20.65;13.10;;;1.60;91.00;;;;;;5103553;28;20032;-57
2023/01/21 04:21:12;;;;;;;17.52;12.75;;;1.50;90.90;;;;;;5105032;28;20032;-57
2023/01/21 04:23:37;;;;;;;23.90;13.73;;;1.50;90.90;;;;;;5104998;28;20067;-56
2023/01/21 04:26:03;;;;;;;24.15;14.23;;;1.50;90.90;;;;;;5103817;28;20433;-57
2023/01/21 04:28:28;;;;;;;19.67;13.63;;;1.50;90.80;;;;;;5105281;28;20440;-57
2023/01/21 04:30:54;;;;;;;19.90;13.60;;;1.50;90.80;;;;;;5103566;28;20024;-56
2023/01/21 04:33:19;;;;;;;18.23;13.05;;;1.50;90.70;;;;;;5086709;28;20055;-57
2023/01/21 04:35:45;;;;;;;23.13;12.65;;;1.50;90.60;;;;;;5103267;28;20028;-57
2023/01/21 04:38:10;;;;;;;20.27;13.55;;;1.50;90.60;;;;;;5104633;28;20333;-56
2023/01/21 04:40:36;;;;;;;18.48;13.75;;;1.50;90.50;;;;;;5086701;28;20024;-56
2023/01/21 04:43:02;;;;;;;22.45;15.18;;;1.40;90.50;;;;;;5105543;28;20047;-57
2023/01/21 04:45:27;;;;;;;20.38;13.75;;;1.40;90.50;;;;;;5086525;28;20024;-57
2023/01/21 04:47:53;;;;;;;23.38;13.80;;;1.40;90.60;;;;;;5104583;28;20181;-57
2023/01/21 04:50:18;;;;;;;20.42;14.10;;;1.40;90.60;;;;;;5103229;28;20047;-56
2023/01/21 04:52:44;;;;;;;18.85;13.25;;;1.40;90.60;;;;;;5103239;28;20032;-57
2023/01/21 04:55:09;;;;;;;22.50;13.90;;;1.40;90.60;;;;;;5103453;28;20035;-57
2023/01/21 04:57:35;;;;;;;18.75;13.23;;;1.40;90.60;;;;;;5103086;28;20072;-56
2023/01/21 05:00:04;;;;;;;18.80;13.02;;;1.40;90.50;;;;;;5103153;28;20024;-57
2023/01/21 05:02:30;;;;;;;21.98;12.70;;;1.30;90.50;;;;;;5086762;28;20044;-56
2023/01/21 05:04:55;;;;;;;18.52;12.85;;;1.30;90.50;;;;;;5103381;28;20028;-57
2023/01/21 05:07:21;;;;;;;18.35;12.95;;;1.30;90.50;;;;;;5086245;28;20039;-57
2023/01/21 05:09:46;;;;;;;22.80;13.55;;;1.30;90.40;;;;;;5086400;28;20028;-56
2023/01/21 05:12:12;;;;;;;19.50;13.30;;;1.30;90.40;;;;;;5104698;28;20138;-56
2023/01/21 05:14:37;;;;;;;18.25;12.85;;;1.30;90.40;;;;;;5104690;28;20024;-57
2023/01/21 05:17:03;;;;;;;17.30;12.93;;;1.30;90.40;;;;;;5105458;28;20118;-56
2023/01/21 05:19:28;;;;;;;15.73;12.63;;;1.30;90.40;;;;;;5108641;28;20040;-57
2023/01/21 05:21:54;;;;;;;16.15;12.60;;;1.30;90.40;;;;;;5108278;28;20415;-56
2023/01/21 05:24:19;;;;;;;16.85;12.15;;;1.30;90.40;;;;;;5073120;28;20519;-56
2023/01/21 05:26:45;;;;;;;17.55;12.02;;;1.30;90.30;;;;;;5108111;28;20036;-56
2023/01/21 05:29:10;;;;;;;16.75;11.88;;;1.30;90.30;;;;;;5108398;28;20478;-56
2023/01/21 05:31:36;;;;;;;15.98;12.23;;;1.20;90.30;;;;;;5106501;28;20388;-57
2023/01/21 05:34:02;;;;;;;22.33;12.85;;;1.30;90.30;;;;;;5108024;28;20118;-57
2023/01/21 05:36:28;;;;;;;15.55;12.50;;;1.20;90.30;;;;;;5106400;28;20024;-56
2023/01/21 05:38:53;;;;;;;19.95;12.02;;;1.20;90.40;;;;;;5106607;28;20024;-57
2023/01/21 05:41:19;;;;;;;19.52;11.52;;;1.20;90.40;;;;;;5106576;28;20038;-57
2023/01/21 05:43:44;;;;;;;16.20;11.98;;;1.20;90.40;;;;;;5072953;28;20058;-57
2023/01/21 05:46:10;;;;;;;20.88;11.52;;;1.20;90.40;;;;;;5089360;28;20027;-57
2023/01/21 05:48:36;;;;;;;17.90;11.75;;;1.20;90.40;;;;;;5107505;28;20040;-57
2023/01/21 05:51:01;;;;;;;17.13;11.90;;;1.20;90.50;;;;;;5106201;28;20117;-57
2023/01/21 05:53:27;;;;;;;17.45;12.73;;;1.20;90.50;;;;;;5107601;28;20039;-57
2023/01/21 05:55:53;;;;;;;18.55;12.23;;;1.20;90.50;;;;;;5107467;28;20028;-56
2023/01/21 05:58:19;;;;;;;17.67;11.50;;;1.10;90.50;;;;;;5107685;28;20029;-57
2023/01/21 06:00:46;;;;;;;17.92;11.38;;;1.10;90.50;;;;;;5089484;28;20020;-57
2023/01/21 06:03:11;;;;;;;20.27;12.32;;;1.10;90.50;;;;;;5106135;28;20028;-56
2023/01/21 06:05:37;;;;;;;15.75;11.02;;;1.10;90.50;;;;;;5105847;28;20032;-56
2023/01/21 06:08:03;;;;;;;14.77;11.02;;;1.10;90.60;;;;;;5106018;28;20031;-56
2023/01/21 06:10:28;;;;;;;14.32;11.57;;;1.10;90.60;;;;;;5105973;28;20034;-57
2023/01/21 06:12:54;;;;;;;17.38;12.25;;;1.00;90.60;;;;;;5107476;28;20051;-57
2023/01/21 06:15:19;;;;;;;16.55;11.65;;;1.10;90.70;;;;;;5105695;28;20115;-57
2023/01/21 06:17:45;;;;;;;17.40;11.77;;;1.00;90.70;;;;;;5105862;28;20051;-57
2023/01/21 06:20:11;;;;;;;17.00;11.13;;;1.00;90.70;;;;;;5107199;28;20024;-57
2023/01/21 06:22:36;;;;;;;15.02;11.18;;;1.00;90.70;;;;;;5107095;28;20047;-56
2023/01/21 06:25:02;;;;;;;15.68;11.65;;;1.00;90.70;;;;;;5105596;28;20032;-56
2023/01/21 06:27:27;;;;;;;14.68;11.68;;;1.00;90.80;;;;;;5121758;28;20062;-57
2023/01/21 06:29:53;;;;;;;16.38;11.55;;;1.00;90.80;;;;;;5105730;28;20032;-57
2023/01/21 06:32:18;;;;;;;15.32;11.25;;;0.90;90.80;;;;;;5107233;28;20028;-57
2023/01/21 06:34:44;;;;;;;14.85;11.52;;;1.00;90.80;;;;;;5088972;28;20055;-56
2023/01/21 06:37:09;;;;;;;15.05;11.15;;;1.00;90.90;;;;;;5106887;28;20468;-56
2023/01/21 06:39:35;;;;;;;14.23;11.20;;;0.90;90.90;;;;;;5105326;28;20020;-56
2023/01/21 06:42:01;;;;;;;16.25;11.05;;;0.90;90.90;;;;;;5106501;28;20498;-57
2023/01/21 06:44:26;;;;;;;15.50;11.02;;;0.90;90.90;;;;;;5106533;28;20394;-57
2023/01/21 06:46:52;;;;;;;15.50;11.18;;;0.90;90.90;;;;;;5105058;28;20028;-57
2023/01/21 06:49:17;;;;;;;14.43;10.98;;;0.90;91.00;;;;;;5104835;28;20039;-57
2023/01/21 06:51:43;;;;;;;15.68;11.10;;;0.90;91.00;;;;;;5071503;28;20035;-57
2023/01/21 06:54:11;;;;;;;16.73;12.18;;;0.90;91.30;;;;;;5106520;28;20016;-57
2023/01/21 06:56:37;;;;;;;15.23;11.18;;;0.90;91.00;;;;;;5104899;28;20032;-56
2023/01/21 06:59:03;;;;;;;14.35;10.68;;;0.90;91.00;;;;;;5106435;28;20020;-57
2023/01/21 07:01:28;;;;;;;15.50;11.27;;;0.90;91.10;;;;;;5088118;28;20050;-57
2023/01/21 07:03:54;;;;;;;17.08;11.38;;;0.90;91.00;;;;;;5087938;28;20024;-57
2023/01/21 07:06:21;;;;;;;15.63;11.13;;;0.90;91.00;;;;;;5106629;28;20134;-57
2023/01/21 07:08:47;;;;;;;16.52;11.38;;;0.90;91.30;;;;;;5105181;28;20034;-56
2023/01/21 07:11:12;;;;;;;16.42;11.50;;;0.90;91.00;;;;;;5104780;28;20040;-57
2023/01/21 07:13:38;;;;;;;14.98;10.55;;;0.90;91.10;;;;;;5087647;28;20032;-56
2023/01/21 07:16:04;;;;;;;15.88;11.02;;;0.90;91.10;;;;;;5104542;28;20020;-57
2023/01/21 07:18:29;;;;;;;16.23;11.27;;;0.80;91.10;;;;;;5105909;28;20030;-56
2023/01/21 07:20:55;;;;;;;15.55;11.23;;;0.80;91.10;;;;;;5104380;28;20039;-57
2023/01/21 07:23:20;;;;;;;14.48;11.32;;;0.90;91.40;;;;;;5087660;28;20123;-56
2023/01/21 07:25:46;;;;;;;17.08;11.45;;;0.80;91.10;;;;;;5105816;28;20127;-56
2023/01/21 07:28:11;;;;;;;14.15;11.15;;;0.80;91.10;;;;;;5104495;28;20036;-56
2023/01/21 07:30:37;;;;;;;14.35;10.90;;;0.90;91.20;;;;;;5105847;28;20016;-57
2023/01/21 07:33:06;;;;;;;12.82;11.00;;;0.80;91.20;;;;;;5105824;28;20081;-57
2023/01/21 07:35:32;;;;;;;16.02;12.13;;;0.80;91.20;;;;;;5087210;28;20077;-57
2023/01/21 07:37:57;;;;;;;15.40;11.38;;;0.80;91.10;;;;;;5105646;28;20032;-57
2023/01/21 07:40:23;;;;;;;14.77;11.63;;;0.90;91.20;;;;;;5105439;28;20130;-57
2023/01/21 07:42:52;;;;;;;13.20;10.40;;;0.90;91.20;;;;;;5105650;28;20453;-55
2023/01/21 07:45:19;;;;;;;13.80;11.32;;;0.80;91.20;;;;;;5070644;28;20027;-56
2023/01/21 07:47:44;;;;;;;15.02;11.77;;;0.80;91.20;;;;;;5103768;28;20582;-57
2023/01/21 07:50:10;;;;;;;18.27;11.98;;;0.90;91.30;;;;;;5104000;28;20162;-56
2023/01/21 07:52:35;;;;;;;20.48;12.38;;;0.80;91.20;;;;;;5105303;28;20108;-57
2023/01/21 07:55:01;;;;;;;16.92;11.55;;;0.80;91.20;;;;;;5104017;28;20108;-57
2023/01/21 07:57:27;;;;;;;14.57;11.27;;;0.90;91.30;;;;;;5104278;28;20020;-57
2023/01/21 07:59:52;;;;;;;15.10;11.43;;;0.90;91.30;;;;;;5087003;28;20038;-57
2023/01/21 08:02:18;;;;;;;16.35;11.93;;;0.80;91.30;;;;;;5105216;28;20036;-57
2023/01/21 08:04:43;;;;;;;13.40;11.43;;;0.80;91.50;;;;;;5105188;28;20048;-57
2023/01/21 08:07:09;;;;;;;16.20;12.18;;;0.80;91.30;;;;;;5120668;28;20563;-57
2023/01/21 08:09:38;;;;;;;18.35;11.73;;;0.80;91.30;;;;;;5103667;28;20527;-57
2023/01/21 08:12:04;;;;;;;18.75;13.05;;;0.90;91.30;;;;;;5106015;28;20416;-57
2023/01/21 08:14:30;;;;;;;14.82;11.35;;;0.90;91.30;;;;;;5103613;28;20031;-57
2023/01/21 08:16:56;;;;;;;17.92;12.70;;;0.90;91.30;;;;;;5086698;28;20073;-57
2023/01/21 08:19:21;;;;;;;14.30;11.65;;;0.90;91.40;;;;;;5103608;28;20032;-57
2023/01/21 08:21:47;;;;;;;16.95;12.25;;;0.90;91.30;;;;;;5086806;28;20326;-57
2023/01/21 08:24:13;;;;;;;16.17;12.48;;;0.90;91.30;;;;;;5104821;28;20028;-56
2023/01/21 08:26:38;;;;;;;15.27;12.50;;;0.90;91.30;;;;;;5103342;28;20028;-56
2023/01/21 08:29:04;;;;;;;15.80;12.07;;;0.90;91.30;;;;;;5103622;28;20103;-57
2023/01/21 08:31:29;;;;;;;17.50;12.90;;;0.90;91.30;;;;;;5103350;28;20325;-56
2023/01/21 08:33:56;;;;;;;15.23;12.23;;;0.90;91.30;;;;;;5103573;28;20652;-57
2023/01/21 08:36:22;;;;;;;17.98;13.02;;;0.90;91.30;;;;;;5104330;28;20119;-57
2023/01/21 08:38:51;;;;;;;16.52;12.85;;;0.90;91.30;;;;;;5104951;28;20047;-57
2023/01/21 08:41:16;;;;;;;18.10;12.98;;;1.00;91.30;;;;;;5103527;28;20028;-55
2023/01/21 08:43:42;;;;;;;18.92;13.05;;;1.00;91.30;;;;;;5086341;28;20039;-57
2023/01/21 08:46:07;;;;;;;17.50;12.40;;;1.00;91.30;;;;;;5120244;28;20496;-57
2023/01/21 08:48:33;;;;;;;17.98;12.73;;;1.00;91.30;;;;;;5103620;28;20422;-56
2023/01/21 08:50:59;;;;;;;19.27;12.80;;;1.00;91.30;;;;;;5105426;28;20028;-56
2023/01/21 08:53:25;;;;;;;17.60;12.93;;;1.00;91.30;;;;;;5108879;28;20495;-57
2023/01/21 08:55:50;;;;;;;16.55;12.95;;;1.00;91.30;;;;;;5108527;28;20020;-56
2023/01/21 08:58:16;;;;;;;18.77;12.93;;;1.00;91.30;;;;;;5090570;28;20040;-57
2023/01/21 09:00:43;;;;;;;15.70;12.52;;;1.00;91.30;;;;;;5107064;28;20021;-57
2023/01/21 09:03:09;;;;;;;19.65;14.43;;;1.00;91.30;;;;;;5107345;28;20360;-56
2023/01/21 09:05:34;;;;;;;19.90;13.30;;;1.00;91.30;;;;;;5090458;28;20020;-57
2023/01/21 09:08:00;;;;;;;19.00;13.80;;;1.10;91.30;;;;;;5108498;28;20552;-57
2023/01/21 09:13:10;;;;;;;18.95;13.45;;;1.10;91.30;;;;;;5107167;28;20100;-57
2023/01/21 09:15:39;;;;;;;18.30;13.85;;;1.10;91.30;;;;;;5073297;28;20468;-57
2023/01/21 09:18:05;;;;;;;21.48;14.43;;;1.10;91.30;;;;;;5108294;28;20099;-57
2023/01/21 09:20:30;;;;;;;16.42;13.18;;;1.20;91.40;;;;;;5106986;28;20020;-57
2023/01/21 09:22:57;;;;;;;19.70;13.93;;;1.20;91.40;;;;;;5107965;28;20105;-57
2023/01/21 09:25:22;;;;;;;18.95;14.70;;;1.20;91.40;;;;;;5089763;28;20483;-57
2023/01/21 09:27:48;;;;;;;19.88;14.48;;;1.20;91.40;;;;;;5106498;28;20028;-57
2023/01/21 09:30:14;;;;;;;24.98;14.85;;;1.20;91.50;;;;;;5106654;28;20035;-56
2023/01/21 09:32:39;;;;;;;18.80;14.77;;;1.20;91.50;;;;;;5089442;28;20085;-54
2023/01/21 09:35:05;;;;;;;21.13;14.52;;;1.20;91.50;;;;;;5107826;28;20067;-57
2023/01/21 09:37:33;;;;;;;20.30;15.45;;;1.20;91.50;;;;;;5107941;28;20051;-56
2023/01/21 09:39:59;;;;;;;22.02;15.35;;;1.20;91.50;;;;;;5123304;28;20020;-57
2023/01/21 09:42:25;;;;;;;30.15;15.90;;;1.30;91.60;;;;;;5106418;28;20457;-57
2023/01/21 09:44:51;;;;;;;44.17;17.15;;;1.30;91.60;;;;;;5089403;28;20020;-56
2023/01/21 09:47:31;;;;;;;42.45;18.38;;;1.30;91.90;;;;;;5072516;28;20044;-57
2023/01/21 09:50:12;;;;;;;53.92;18.13;;;1.40;92.00;;;;;;5090159;28;20036;-57
2023/01/21 09:52:43;;;;;;;57.38;19.05;;;1.40;92.10;;;;;;5106273;28;20028;-56
2023/01/21 09:55:23;;;;;;;42.63;17.60;;;1.40;92.20;;;;;;5107414;28;20020;-57
2023/01/21 09:58:00;;;;;;;53.58;19.42;;;1.40;92.20;;;;;;5089744;28;20047;-56
2023/01/21 10:00:33;;;;;;;74.32;19.67;;;1.40;92.10;;;;;;5107329;28;20032;-56
2023/01/21 10:03:33;;;;;;;70.38;20.65;;;1.40;92.30;;;;;;5091738;28;20043;-57
2023/01/21 10:06:26;;;;;;;82.35;19.80;;;1.50;92.50;;;;;;5095968;28;20039;-56
2023/01/21 10:09:27;;;;;;;82.00;21.70;;;1.50;92.50;;;;;;5087133;28;20100;-56
2023/01/21 10:12:04;;;;;;;76.07;22.00;;;1.50;92.60;;;;;;5087791;28;20032;-57
2023/01/21 10:14:39;;;;;;;68.85;20.95;;;1.50;92.90;;;;;;5105781;28;20020;-57
2023/01/21 10:17:09;;;;;;;59.78;21.25;;;1.50;92.60;;;;;;5107268;28;20066;-57
2023/01/21 10:19:39;;;;;;;62.10;20.60;;;1.60;92.60;;;;;;5100507;28;20028;-56
2023/01/21 10:22:08;;;;;;;69.80;20.73;;;1.60;92.60;;;;;;5090927;28;20036;-56
2023/01/21 10:24:37;;;;;;;65.85;20.45;;;1.60;92.60;;;;;;5099497;28;20054;-57
2023/01/21 10:27:03;;;;;;;73.68;21.98;;;1.60;92.60;;;;;;5105549;28;20065;-57
2023/01/21 10:29:28;;;;;;;86.45;22.65;;;1.70;92.70;;;;;;5104860;28;20024;-57
2023/01/21 10:31:58;;;;;;;69.60;21.02;;;1.70;92.70;;;;;;5105941;28;20051;-57
2023/01/21 10:34:24;;;;;;;77.45;21.58;;;1.70;92.60;;;;;;5104439;28;20023;-57
2023/01/21 10:37:06;;;;;;;71.70;21.40;;;1.70;92.60;;;;;;5105530;28;20055;-57
2023/01/21 10:39:59;;;;;;;72.90;20.95;;;1.70;92.80;;;;;;5088327;28;20081;-56
2023/01/21 10:42:40;;;;;;;76.85;21.27;;;1.80;92.60;;;;;;5105526;28;20111;-57
2023/01/21 10:45:11;;;;;;;72.15;21.85;;;1.80;92.60;;;;;;5103220;28;20049;-57
2023/01/21 10:47:59;;;;;;;99.28;23.65;;;1.80;92.60;;;;;;5105925;28;20483;-56
2023/01/21 10:50:33;;;;;;;85.30;22.52;;;1.80;92.70;;;;;;5105371;28;20117;-57
2023/01/21 10:53:19;;;;;;;62.60;20.23;;;1.80;92.70;;;;;;5105188;28;20123;-57
2023/01/21 10:55:47;;;;;;;;;;;1.90;92.70;;;;;;5103994;28;20024;-57
2023/01/21 10:58:25;;;;;;;80.22;21.35;;;1.90;92.70;;;;;;5104966;28;19915;-56
2023/01/21 11:00:50;;;;;;;74.78;22.70;;;1.90;92.70;;;;;;5104961;28;20028;-57
2023/01/21 11:03:40;;;;;;;65.63;23.45;;;1.90;92.70;;;;;;5104992;28;20399;-57
2023/01/21 11:06:07;;;;;;;84.68;22.40;;;1.90;92.70;;;;;;5104297;28;20595;-57
2023/01/21 11:08:32;;;;;;;69.85;22.52;;;2.00;92.90;;;;;;5067969;28;20123;-57
2023/01/21 11:10:58;;;;;;;97.38;24.67;;;2.00;92.80;;;;;;5084458;28;20028;-56
2023/01/21 11:13:24;;;;;;;101.72;25.88;;;2.00;92.80;;;;;;5083934;28;20112;-57
2023/01/21 11:15:52;;;;;;;77.70;21.73;;;2.00;92.90;;;;;;5099566;28;20413;-57
2023/01/21 11:18:44;;;;;;;100.43;23.05;;;2.10;92.90;;;;;;5105587;28;20052;-56
2023/01/21 11:21:21;;;;;;;97.70;23.80;;;2.10;93.00;;;;;;5100101;28;20043;-57
2023/01/21 11:23:55;;;;;;;109.40;24.27;;;2.20;93.10;;;;;;5100742;28;20040;-57
2023/01/21 11:26:34;;;;;;;105.32;25.40;;;2.20;93.10;;;;;;5105131;28;20024;-57
2023/01/21 11:29:16;;;;;;;151.10;27.67;;;2.20;93.00;;;;;;5104330;28;20040;-57
2023/01/21 11:32:02;;;;;;;119.22;25.35;;;2.30;93.00;;;;;;5086340;28;20023;-56
2023/01/21 11:34:27;;;;;;;150.68;26.63;;;2.30;93.00;;;;;;5068467;28;20430;-57
2023/01/21 11:36:54;;;;;;;112.13;23.80;;;2.30;93.00;;;;;;5083456;28;20028;-57
2023/01/21 11:39:22;;;;;;;121.82;25.15;;;2.40;93.00;;;;;;5083653;28;20029;-57
2023/01/21 11:41:52;;;;;;;108.05;25.23;;;2.40;93.00;;;;;;5083295;28;20029;-57
2023/01/21 11:44:18;;;;;;;153.43;26.58;;;2.40;93.00;;;;;;5084565;28;20032;-56
2023/01/21 11:46:44;;;;;;;119.25;23.02;;;2.40;93.00;;;;;;5103484;28;20099;-56
2023/01/21 11:49:16;;;;;;;117.65;25.48;;;2.40;93.10;;;;;;5103762;28;20032;-56
2023/01/21 11:51:42;;;;;;;136.43;26.02;;;2.50;93.10;;;;;;5101918;28;20024;-57
2023/01/21 11:54:15;;;;;;;137.25;24.83;;;2.50;93.20;;;;;;5086785;28;20055;-56
2023/01/21 11:56:50;;;;;;;127.95;25.30;;;2.50;93.20;;;;;;5103600;28;20426;-57
2023/01/21 11:59:26;;;;;;;121.20;24.53;;;2.60;93.20;;;;;;5083760;28;20077;-56
2023/01/21 12:02:21;;;;;;;114.80;23.40;;;2.60;93.20;;;;;;5103049;28;20040;-57
2023/01/21 12:04:51;;;;;;;112.55;22.83;;;2.60;93.20;;;;;;5086032;28;20035;-56
2023/01/21 12:07:28;;;;;;;96.90;22.70;;;2.70;93.10;;;;;;5101110;28;20036;-57
2023/01/21 12:10:07;;;;;;;122.18;21.77;;;2.70;93.00;;;;;;5084232;28;20027;-56
2023/01/21 12:12:36;;;;;;;119.90;23.38;;;2.70;93.00;;;;;;5100859;28;20065;-56
2023/01/21 12:15:10;;;;;;;124.57;21.48;;;2.80;93.00;;;;;;5101567;28;20030;-56
2023/01/21 12:17:57;;;;;;;104.93;22.65;;;2.80;92.90;;;;;;5084801;28;20038;-57
2023/01/21 12:20:34;;;;;;;90.85;21.42;;;2.80;92.80;;;;;;5069075;28;20058;-56
2023/01/21 12:23:20;;;;;;;126.57;22.77;;;2.80;92.80;;;;;;5102033;28;20499;-57
2023/01/21 12:26:12;;;;;;;174.70;25.02;;;2.80;92.80;;;;;;5101784;28;20036;-56
2023/01/21 12:28:59;;;;;;;139.85;23.33;;;2.90;92.70;;;;;;5069008;28;20044;-57
2023/01/21 12:31:31;;;;;;;116.38;21.35;;;2.90;92.60;;;;;;5090211;28;20028;-57
2023/01/21 12:34:09;;;;;;;103.20;20.02;;;3.00;92.60;;;;;;5099636;28;20546;-55
2023/01/21 12:36:55;;;;;;;93.88;19.85;;;3.00;92.60;;;;;;5065152;28;20017;-57
2023/01/21 12:39:49;;;;;;;113.55;22.92;;;3.00;92.70;;;;;;5065032;28;20043;-57
2023/01/21 12:42:21;;;;;;;115.60;22.13;;;3.00;92.70;;;;;;5082255;28;20109;-57
2023/01/21 12:44:49;;;;;;;117.57;22.42;;;3.00;92.80;;;;;;5098240;28;20036;-57
2023/01/21 12:47:30;;;;;;;120.10;21.42;;;3.00;92.90;;;;;;5100495;28;20080;-57
2023/01/21 12:50:15;;;;;;;106.07;20.05;;;3.00;92.90;;;;;;5100867;28;20044;-57
2023/01/21 12:52:47;;;;;;;99.30;21.92;;;3.10;93.10;;;;;;5099249;28;20020;-57
2023/01/21 12:55:24;;;;;;;91.13;21.23;;;3.10;93.20;;;;;;5100756;28;20043;-57
2023/01/21 12:57:56;;;;;;;143.20;22.58;;;3.20;93.00;;;;;;5075302;28;20141;-56